This is the latest recevied weather packets stored in our database for station/object IR1ZYZ-3. If no packets are shown the sender has not sent any weather packets the latest 10 day(s).
| Time | Temp. | Humidity | Pressure | Rain* | Wind** | Luminosity | Snow |
|---|---|---|---|---|---|---|---|
| 1777778825 | 10° C | 85% | 1021.8 hPa | - | - | - | - |
| 1777778220 | 10° C | 82% | 1021.9 hPa | - | - | - | - |
| 1777777616 | 10° C | 79% | 1021.8 hPa | - | - | - | - |
| 1777777616 | 10° C | - | - | - | - | - | - |
| 1777777011 | 10° C | 74% | 1021.9 hPa | - | - | - | - |
| 1777776406 | 10.56° C | 70% | 1021.9 hPa | - | - | - | - |
| 1777775800 | 10° C | 66% | 1021.9 hPa | - | - | - | - |
| 1777775196 | 10° C | 67% | 1022 hPa | - | - | - | - |
| 1777774591 | 10.56° C | 61% | 1022.1 hPa | - | - | - | - |
| 1777773987 | 10.56° C | 59% | 1022 hPa | - | - | - | - |
| 1777773382 | 10.56° C | 59% | 1021.9 hPa | - | - | - | - |
| 1777772777 | 11.11° C | 53% | 1022 hPa | - | - | - | - |
| 1777772173 | 11.67° C | 51% | 1021.9 hPa | - | - | - | - |
| 1777771568 | 12.78° C | 46% | 1021.8 hPa | - | - | - | - |
| 1777770963 | 13.33° C | 45% | 1021.8 hPa | - | - | - | - |
| 1777770359 | 11.67° C | 49% | 1022 hPa | - | - | - | - |
| 1777769753 | 12.78° C | 47% | 1021.9 hPa | - | - | - | - |
| 1777769148 | 11.67° C | 51% | 1022.1 hPa | - | - | - | - |
| 1777768543 | 12.22° C | 50% | 1022.1 hPa | - | - | - | - |
| 1777767938 | 12.78° C | 47% | 1022.2 hPa | - | - | - | - |
| 1777767334 | 13.33° C | 46% | 1022.2 hPa | - | - | - | - |
| 1777766729 | 12.22° C | 50% | 1022.4 hPa | - | - | - | - |
| 1777766125 | 12.22° C | 51% | 1022.4 hPa | - | - | - | - |
| 1777765520 | 12.78° C | 50% | 1022.4 hPa | - | - | - | - |
| 1777764916 | 12.78° C | 49% | 1022.5 hPa | - | - | - | - |
* Rain since midnight (hover to see other rain measurements)
** Current wind speed in m/s (hover to see current wind gust speed)